42MA weather

Worcester Medical Center Heliport
Worcester, Massachusetts, United States

Public forecast

Using degrees Fahrenheit for public forecast. Weather courtesy of forecast.io.

METAR (pilot weather report)

Closest report is Worcester Regional Airport, 3.6 nm (6.6 km) WNW. Retrieved 2019/09/21 01:54 UTC (8 minutes ago):

KORH 210154Z 31009KT 10SM CLR 18/10 A3016 RMK AO2 SLP212 T01830100

TAF (pilot weather forecast)

Forecast is more than 12 hours old.

Closest forecast is Worcester Regional Airport, 3.6 nm (6.6 km) WNW. Retrieved 2019/09/20 00:22 UTC (1 day ago):

TAF KORH 202320Z 2100/2124 28006KT P6SM FEW250 FM210700 30008KT P6SM SKC FM211700 27005KT P6SM SKC FM212200 24005KT P6SM SKC